createdAt,value
2022-09-22T00:01:37.950Z,97269.09
2022-09-22T00:04:09.549Z,97264.38
2022-09-22T00:06:40.999Z,97259.94
2022-09-22T00:09:13.924Z,97273.44
2022-09-22T00:11:44.816Z,97267.66
2022-09-22T00:14:16.265Z,97270.94
2022-09-22T00:16:46.734Z,97264.78
2022-09-22T00:19:20.072Z,97265.44
2022-09-22T00:21:49.070Z,97260.72
2022-09-22T00:24:20.511Z,97261.34
2022-09-22T00:26:48.523Z,97262.81
2022-09-22T00:29:17.261Z,97259.78
2022-09-22T00:31:46.573Z,97257.44
2022-09-22T00:34:17.331Z,97257.69
2022-09-22T00:36:46.142Z,97251.44
2022-09-22T00:39:16.268Z,97252.25
2022-09-22T00:41:49.288Z,97251.19
2022-09-22T00:44:47.594Z,97244.09
2022-09-22T00:47:36.557Z,97241.41
2022-09-22T00:50:13.537Z,97233.16
2022-09-22T00:52:48.483Z,97233.97
2022-09-22T00:55:21.288Z,97236.66
2022-09-22T00:57:51.558Z,97226.78
2022-09-22T01:00:20.363Z,97232.59
2022-09-22T01:02:51.398Z,97227.53
2022-09-22T01:05:20.862Z,97229.53
2022-09-22T01:07:49.725Z,97229.59
2022-09-22T01:10:18.439Z,97223.91
2022-09-22T01:12:58.610Z,97230.41
2022-09-22T01:15:38.136Z,97232.31
2022-09-22T01:18:20.459Z,97236.50
2022-09-22T01:21:30.243Z,97238.03
2022-09-22T01:24:47.324Z,97226.63
2022-09-22T01:27:59.999Z,97223.75
2022-09-22T01:30:37.869Z,97227.13
2022-09-22T01:33:43.137Z,97230.09
2022-09-22T01:36:25.399Z,97234.31
2022-09-22T01:39:06.011Z,97224.34
2022-09-22T01:41:54.700Z,97226.97
2022-09-22T01:44:30.027Z,97225.63
2022-09-22T01:47:05.645Z,97227.28
2022-09-22T01:49:38.507Z,97225.19
2022-09-22T01:52:12.936Z,97226.69
2022-09-22T01:54:47.269Z,97230.31
2022-09-22T01:57:21.845Z,97239.63
2022-09-22T01:59:57.194Z,97233.94
2022-09-22T02:02:32.810Z,97228.97
2022-09-22T02:05:06.749Z,97228.16
2022-09-22T02:07:39.740Z,97236.19
2022-09-22T02:10:13.619Z,97229.50
2022-09-22T02:12:41.797Z,97221.47
2022-09-22T02:15:31.990Z,97226.97
2022-09-22T02:18:08.130Z,97229.31
2022-09-22T02:20:36.432Z,97218.19
2022-09-22T02:23:04.532Z,97219.84
2022-09-22T02:25:32.865Z,97220.19
2022-09-22T02:28:01.553Z,97222.38
2022-09-22T02:30:30.111Z,97221.91
2022-09-22T02:33:00.144Z,97218.00
2022-09-22T02:35:32.998Z,97214.03
2022-09-22T02:38:07.013Z,97212.13
2022-09-22T02:40:46.340Z,97217.19
2022-09-22T02:43:22.563Z,97206.31
2022-09-22T02:45:57.714Z,97207.78
2022-09-22T02:48:28.467Z,97211.84
2022-09-22T02:50:58.425Z,97207.59
2022-09-22T02:53:26.462Z,97209.88
2022-09-22T02:55:54.702Z,97209.38
2022-09-22T02:58:22.667Z,97215.09
2022-09-22T03:00:50.772Z,97214.94
2022-09-22T03:03:18.804Z,97207.41
2022-09-22T03:05:46.832Z,97213.09
2022-09-22T03:08:16.169Z,97214.63
2022-09-22T03:10:44.244Z,97206.31
2022-09-22T03:13:17.080Z,97202.88
2022-09-22T03:15:47.126Z,97198.19
2022-09-22T03:18:15.452Z,97202.00
2022-09-22T03:20:43.595Z,97205.41
2022-09-22T03:23:11.874Z,97198.56
2022-09-22T03:25:41.464Z,97197.75
2022-09-22T03:28:09.523Z,97203.00
2022-09-22T03:30:40.273Z,97203.78
2022-09-22T03:33:08.427Z,97200.91
2022-09-22T03:35:36.408Z,97203.88
2022-09-22T03:38:04.563Z,97196.75
2022-09-22T03:40:33.040Z,97203.34
2022-09-22T03:43:02.506Z,97200.06
2022-09-22T03:45:30.518Z,97200.78
2022-09-22T03:47:58.975Z,97191.94
2022-09-22T03:50:28.341Z,97193.91
2022-09-22T03:52:57.867Z,97195.53
2022-09-22T03:55:25.865Z,97197.44
2022-09-22T03:57:53.901Z,97194.53
2022-09-22T04:00:23.237Z,97190.66
2022-09-22T04:02:51.406Z,97197.88
2022-09-22T04:05:21.371Z,97189.22
2022-09-22T04:07:49.341Z,97190.81
2022-09-22T04:10:17.551Z,97190.00
2022-09-22T04:12:45.578Z,97185.50
2022-09-22T04:15:13.799Z,97189.56
2022-09-22T04:17:43.164Z,97183.13
2022-09-22T04:20:12.068Z,97194.38
2022-09-22T04:22:40.441Z,97186.69
2022-09-22T04:25:10.622Z,97188.03
2022-09-22T04:27:38.591Z,97188.81
2022-09-22T04:30:09.447Z,97186.22
2022-09-22T04:32:37.476Z,97186.41
2022-09-22T04:35:09.443Z,97187.38
2022-09-22T04:37:37.408Z,97189.56
2022-09-22T04:40:06.567Z,97200.47
2022-09-22T04:42:34.590Z,97195.53
2022-09-22T04:45:02.991Z,97186.75
2022-09-22T04:47:31.403Z,97190.38
2022-09-22T04:49:59.731Z,97190.72
2022-09-22T04:52:29.094Z,97189.28
2022-09-22T04:54:57.111Z,97188.28
2022-09-22T04:57:25.282Z,97183.72
2022-09-22T04:59:53.310Z,97186.56
2022-09-22T05:02:21.315Z,97190.63
2022-09-22T05:04:49.447Z,97184.38
2022-09-22T05:07:17.439Z,97196.75
2022-09-22T05:09:47.619Z,97194.53
2022-09-22T05:12:15.637Z,97190.63
2022-09-22T05:14:43.672Z,97196.38
2022-09-22T05:17:11.739Z,97196.50
2022-09-22T05:19:39.808Z,97195.88
2022-09-22T05:22:07.844Z,97193.88
2022-09-22T05:24:35.915Z,97190.81
2022-09-22T05:27:05.877Z,97188.06
2022-09-22T05:29:33.878Z,97203.78
2022-09-22T05:32:02.881Z,97199.19
2022-09-22T05:34:30.959Z,97211.09
2022-09-22T05:36:58.962Z,97209.84
2022-09-22T05:39:26.974Z,97213.28
2022-09-22T05:41:54.985Z,97209.22
2022-09-22T05:44:24.613Z,97213.56
2022-09-22T05:46:52.696Z,97209.94
2022-09-22T05:49:20.699Z,97213.22
2022-09-22T05:51:48.708Z,97216.28
2022-09-22T05:54:21.241Z,97205.34
2022-09-22T05:56:51.191Z,97215.09
2022-09-22T05:59:19.380Z,97213.50
2022-09-22T06:01:48.903Z,97213.50
2022-09-22T06:04:17.047Z,97221.50
2022-09-22T06:06:45.055Z,97216.88
2022-09-22T06:09:13.080Z,97221.22
2022-09-22T06:11:41.056Z,97219.34
2022-09-22T06:14:09.061Z,97215.56
2022-09-22T06:16:37.098Z,97219.75
2022-09-22T06:19:06.732Z,97215.78
2022-09-22T06:21:35.097Z,97209.44
2022-09-22T06:24:03.607Z,97214.75
2022-09-22T06:26:31.773Z,97215.94
2022-09-22T06:28:59.767Z,97215.47
2022-09-22T06:31:27.817Z,97211.59
2022-09-22T06:33:56.282Z,97215.59
2022-09-22T06:36:31.492Z,97210.09
2022-09-22T06:39:00.102Z,97215.16
2022-09-22T06:41:29.715Z,97211.06
2022-09-22T06:44:08.184Z,97208.69
2022-09-22T06:46:36.572Z,97203.69
2022-09-22T06:49:04.593Z,97206.22
2022-09-22T06:51:35.950Z,97200.25
2022-09-22T06:54:07.074Z,97201.38
2022-09-22T06:56:39.780Z,97204.06
2022-09-22T06:59:10.952Z,97203.06
2022-09-22T07:01:40.229Z,97204.13
2022-09-22T07:04:09.201Z,97207.28
2022-09-22T07:06:40.519Z,97202.56
2022-09-22T07:09:09.150Z,97199.38
2022-09-22T07:11:40.018Z,97204.50
2022-09-22T07:14:10.184Z,97198.06
2022-09-22T07:16:39.935Z,97198.75
2022-09-22T07:19:08.264Z,97199.22
2022-09-22T07:21:37.669Z,97200.72
2022-09-22T07:24:08.343Z,97202.13
2022-09-22T07:26:39.075Z,97197.34
2022-09-22T07:29:13.116Z,97199.38
2022-09-22T07:31:41.805Z,97200.66
2022-09-22T07:34:10.652Z,97205.53
2022-09-22T07:36:40.866Z,97200.97
2022-09-22T07:39:11.454Z,97201.63
2022-09-22T07:41:43.633Z,97204.31
2022-09-22T07:44:32.055Z,97198.28
2022-09-22T07:47:00.938Z,97190.03
2022-09-22T07:49:30.589Z,97192.09
2022-09-22T07:51:59.935Z,97193.72
2022-09-22T07:54:28.655Z,97189.66
2022-09-22T07:56:58.409Z,97191.75
2022-09-22T07:59:27.647Z,97196.03
2022-09-22T08:01:56.020Z,97185.28
2022-09-22T08:04:26.430Z,97186.50
2022-09-22T08:06:56.490Z,97186.47
2022-09-22T08:09:28.158Z,97185.22
2022-09-22T08:11:57.058Z,97182.38
2022-09-22T08:14:25.261Z,97182.34
2022-09-22T08:16:54.251Z,97179.09
2022-09-22T08:19:24.472Z,97179.06
2022-09-22T08:21:54.795Z,97182.09
2022-09-22T08:24:23.931Z,97174.75
2022-09-22T08:26:56.090Z,97173.47
2022-09-22T08:29:24.710Z,97174.16
2022-09-22T08:31:53.980Z,97167.44
2022-09-22T08:34:22.628Z,97165.63
2022-09-22T08:36:50.635Z,97164.34
2022-09-22T08:39:20.015Z,97159.44
2022-09-22T08:42:07.963Z,97161.41
2022-09-22T08:44:42.250Z,97166.97
2022-09-22T08:47:38.978Z,97170.47
2022-09-22T08:50:55.842Z,97172.16
2022-09-22T08:53:23.917Z,97168.56
2022-09-22T08:56:05.246Z,97174.16
2022-09-22T08:58:44.545Z,97178.97
2022-09-22T09:01:30.772Z,97180.50
2022-09-22T09:04:32.232Z,97173.19
2022-09-22T09:07:10.305Z,97170.69
2022-09-22T09:09:53.759Z,97176.13
2022-09-22T09:13:05.039Z,97178.56
2022-09-22T09:15:51.127Z,97178.06
2022-09-22T09:18:26.198Z,97173.28
2022-09-22T09:20:55.322Z,97173.44
2022-09-22T09:26:20.063Z,97167.78
2022-09-22T09:28:53.470Z,97162.19
2022-09-22T09:31:34.301Z,97159.75
2022-09-22T09:34:06.073Z,97160.53
2022-09-22T09:36:38.985Z,97155.44
2022-09-22T09:39:15.945Z,97156.06
2022-09-22T09:41:47.791Z,97153.19
2022-09-22T09:44:25.530Z,97159.16
2022-09-22T09:47:03.377Z,97154.56
2022-09-22T09:49:31.801Z,97152.47
2022-09-22T09:52:03.093Z,97150.56
2022-09-22T09:54:31.099Z,97152.59
2022-09-22T09:57:06.223Z,97146.66
2022-09-22T09:59:53.099Z,97150.78
2022-09-22T10:02:27.373Z,97156.94
2022-09-22T10:04:58.473Z,97149.66
2022-09-22T10:10:32.380Z,97148.91
2022-09-22T10:13:32.615Z,97146.78
2022-09-22T10:16:21.112Z,97148.25
2022-09-22T10:18:52.410Z,97150.06
2022-09-22T10:21:23.396Z,97143.22
2022-09-22T10:23:53.433Z,97139.63
2022-09-22T10:26:26.383Z,97144.16
2022-09-22T10:29:18.976Z,97130.78
2022-09-22T10:32:14.833Z,97135.50
2022-09-22T10:37:26.354Z,97125.78
2022-09-22T10:39:57.335Z,97127.31
2022-09-22T10:42:36.945Z,97122.78
2022-09-22T10:45:11.140Z,97123.22
2022-09-22T10:47:57.197Z,97119.09
2022-09-22T10:50:42.504Z,97123.41
2022-09-22T10:53:31.952Z,97115.81
2022-09-22T10:56:13.035Z,97108.72
2022-09-22T10:59:15.744Z,97115.81
2022-09-22T11:01:57.891Z,97111.22
2022-09-22T11:04:42.812Z,97120.13
2022-09-22T11:07:52.162Z,97115.53
2022-09-22T11:10:50.213Z,97116.31
2022-09-22T11:13:34.318Z,97116.84
2022-09-22T11:16:34.210Z,97110.44
2022-09-22T11:19:29.483Z,97114.69
2022-09-22T11:22:22.209Z,97105.00
2022-09-22T11:25:07.178Z,97102.53
2022-09-22T11:27:54.487Z,97105.38
2022-09-22T11:30:24.085Z,97094.88
2022-09-22T11:33:22.734Z,97091.47
2022-09-22T11:36:01.444Z,97089.19
2022-09-22T11:39:01.935Z,97082.25
2022-09-22T11:41:45.227Z,97086.91
2022-09-22T11:44:41.767Z,97084.56
2022-09-22T11:47:59.615Z,97079.59
2022-09-22T11:50:51.598Z,97075.63
2022-09-22T11:53:35.044Z,97074.72
2022-09-22T11:56:28.256Z,97066.75
2022-09-22T11:59:05.280Z,97066.16
2022-09-22T12:01:40.191Z,97071.00
2022-09-22T12:04:21.354Z,97071.06
2022-09-22T12:06:56.774Z,97069.69
2022-09-22T12:09:38.830Z,97063.84
2022-09-22T12:12:13.194Z,97065.44
2022-09-22T12:14:43.523Z,97063.47
2022-09-22T12:17:21.439Z,97057.78
2022-09-22T12:20:08.240Z,97050.53
2022-09-22T12:22:57.854Z,97053.44
2022-09-22T12:25:49.708Z,97048.84
2022-09-22T12:28:25.698Z,97046.88
2022-09-22T12:31:05.844Z,97043.94
2022-09-22T12:33:38.024Z,97041.59
2022-09-22T12:36:07.800Z,97047.22
2022-09-22T12:38:36.119Z,97049.16
2022-09-22T12:41:05.005Z,97043.81
2022-09-22T12:43:35.789Z,97044.69
2022-09-22T12:46:21.898Z,97042.56
2022-09-22T12:48:50.129Z,97034.91
2022-09-22T12:51:34.390Z,97029.63
2022-09-22T12:54:39.906Z,97032.25
2022-09-22T12:57:45.642Z,97023.81
2022-09-22T13:00:36.554Z,97019.44
2022-09-22T13:06:02.802Z,97019.50
2022-09-22T13:09:21.318Z,97019.16
2022-09-22T13:12:28.073Z,97018.34
2022-09-22T13:15:19.628Z,97019.50
2022-09-22T13:17:49.392Z,97019.00
2022-09-22T13:20:27.108Z,97018.28
2022-09-22T13:23:05.781Z,97013.06
2022-09-22T13:25:35.004Z,97012.50
2022-09-22T13:28:14.435Z,97008.00
2022-09-22T13:30:45.002Z,97002.28
2022-09-22T13:33:22.571Z,97011.59
2022-09-22T13:35:59.783Z,96993.72
2022-09-22T13:38:29.604Z,97001.66
2022-09-22T13:40:57.757Z,97005.78
2022-09-22T13:43:34.819Z,97011.19
2022-09-22T13:46:04.808Z,97008.47
2022-09-22T13:48:36.630Z,97004.03
2022-09-22T13:51:09.030Z,96994.56
2022-09-22T13:53:39.383Z,97006.00
2022-09-22T13:56:21.418Z,96997.06
2022-09-22T13:58:52.653Z,96999.59
2022-09-22T14:01:25.006Z,96998.69
2022-09-22T14:03:54.406Z,96987.22
2022-09-22T14:06:25.301Z,96991.91
2022-09-22T14:08:55.964Z,96983.00
2022-09-22T14:11:28.202Z,96978.66
2022-09-22T14:14:01.887Z,96979.25
2022-09-22T14:16:35.781Z,96977.47
2022-09-22T14:19:08.464Z,96984.25
2022-09-22T14:21:45.881Z,96983.25
2022-09-22T14:24:15.754Z,96973.41
2022-09-22T14:26:47.976Z,96983.81
2022-09-22T14:29:24.647Z,96970.00
2022-09-22T14:31:57.466Z,96963.13
2022-09-22T14:34:31.143Z,96962.56
2022-09-22T14:37:05.904Z,96962.50
2022-09-22T14:39:35.280Z,96958.47
2022-09-22T14:42:17.338Z,96963.56
2022-09-22T14:44:48.331Z,96958.81
2022-09-22T14:47:26.945Z,96959.44
2022-09-22T14:50:14.314Z,96957.50
2022-09-22T14:52:52.687Z,96957.22
2022-09-22T14:55:31.369Z,96950.78
2022-09-22T14:58:05.428Z,96954.78
2022-09-22T15:00:52.079Z,96951.50
2022-09-22T15:03:25.688Z,96951.47
2022-09-22T15:05:54.234Z,96944.97
2022-09-22T15:08:27.784Z,96934.59
2022-09-22T15:10:59.691Z,96944.03
2022-09-22T15:13:32.425Z,96945.06
2022-09-22T15:16:00.687Z,96945.56
2022-09-22T15:18:30.945Z,96934.50
2022-09-22T15:21:06.079Z,96939.28
2022-09-22T15:23:40.945Z,96940.94
2022-09-22T15:26:21.714Z,96937.22
2022-09-22T15:28:54.574Z,96932.31
2022-09-22T15:31:27.242Z,96936.28
2022-09-22T15:33:56.228Z,96929.34
2022-09-22T15:36:25.676Z,96932.31
2022-09-22T15:38:59.571Z,96933.28
2022-09-22T15:41:29.029Z,96933.28
2022-09-22T15:43:57.465Z,96932.13
2022-09-22T15:46:33.712Z,96931.09
2022-09-22T15:49:08.824Z,96915.47
2022-09-22T15:51:36.875Z,96923.19
2022-09-22T15:54:11.242Z,96916.81
2022-09-22T15:56:41.293Z,96911.88
2022-09-22T15:59:17.955Z,96913.50
2022-09-22T16:01:46.163Z,96923.84
2022-09-22T16:04:14.346Z,96919.19
2022-09-22T16:06:48.059Z,96916.53
2022-09-22T16:09:18.233Z,96915.97
2022-09-22T16:11:48.435Z,96907.91
2022-09-22T16:14:16.661Z,96914.28
2022-09-22T16:16:45.220Z,96915.59
2022-09-22T16:19:13.217Z,96911.56
2022-09-22T16:21:52.692Z,96910.75
2022-09-22T16:24:22.616Z,96914.66
2022-09-22T16:26:52.569Z,96913.00
2022-09-22T16:29:20.662Z,96914.06
2022-09-22T16:31:49.270Z,96922.28
2022-09-22T16:34:17.335Z,96921.75
2022-09-22T16:36:46.191Z,96916.59
2022-09-22T16:39:14.379Z,96917.31
2022-09-22T16:41:47.070Z,96913.28
2022-09-22T16:44:16.812Z,96911.94
2022-09-22T16:46:45.005Z,96916.91
2022-09-22T16:49:16.268Z,96914.53
2022-09-22T16:51:49.178Z,96914.19
2022-09-22T16:54:18.552Z,96920.81
2022-09-22T16:56:49.519Z,96912.25
2022-09-22T16:59:21.243Z,96920.16
2022-09-22T17:01:49.964Z,96914.75
2022-09-22T17:04:19.410Z,96921.63
2022-09-22T17:06:48.044Z,96916.66
2022-09-22T17:09:16.939Z,96925.81
2022-09-22T17:11:47.815Z,96923.09
2022-09-22T17:14:21.038Z,96926.72
2022-09-22T17:16:51.900Z,96924.78
2022-09-22T17:19:21.813Z,96918.78
2022-09-22T17:21:51.934Z,96922.75
2022-09-22T17:24:20.803Z,96916.44
2022-09-22T17:26:52.076Z,96915.00
2022-09-22T17:29:24.682Z,96911.47
2022-09-22T17:31:56.437Z,96910.47
2022-09-22T17:34:25.088Z,96915.66
2022-09-22T17:36:55.328Z,96910.31
2022-09-22T17:39:24.292Z,96914.47
2022-09-22T17:41:52.828Z,96918.06
2022-09-22T17:44:23.115Z,96916.22
2022-09-22T17:47:10.940Z,96924.88
2022-09-22T17:49:57.407Z,96924.19
2022-09-22T17:52:43.910Z,96918.19
2022-09-22T17:55:21.767Z,96927.88
2022-09-22T17:57:52.673Z,96930.31
2022-09-22T18:00:24.438Z,96924.53
2022-09-22T18:02:54.216Z,96932.41
2022-09-22T18:05:26.590Z,96928.38
2022-09-22T18:07:58.212Z,96923.03
2022-09-22T18:10:32.351Z,96923.72
2022-09-22T18:13:01.438Z,96922.22
2022-09-22T18:15:30.808Z,96914.38
2022-09-22T18:17:58.923Z,96922.75
2022-09-22T18:20:27.771Z,96922.41
2022-09-22T18:22:57.763Z,96921.84
2022-09-22T18:25:49.899Z,96919.41
2022-09-22T18:28:23.947Z,96928.63
2022-09-22T18:30:54.285Z,96930.22
2022-09-22T18:33:22.806Z,96934.97
2022-09-22T18:35:50.808Z,96930.34
2022-09-22T18:38:19.728Z,96931.84
2022-09-22T18:40:51.427Z,96938.41
2022-09-22T18:43:19.499Z,96937.56
2022-09-22T18:45:47.642Z,96933.25
2022-09-22T18:48:18.265Z,96933.50
2022-09-22T18:50:47.131Z,96931.97
2022-09-22T18:53:17.891Z,96930.81
2022-09-22T18:55:47.334Z,96938.22
2022-09-22T18:58:15.341Z,96936.94
2022-09-22T19:00:44.312Z,96939.13
2022-09-22T19:03:13.143Z,96944.44
2022-09-22T19:05:42.440Z,96945.66
2022-09-22T19:08:11.206Z,96943.50
2022-09-22T19:10:39.205Z,96940.09
2022-09-22T19:13:07.725Z,96936.16
2022-09-22T19:15:36.509Z,96944.31
2022-09-22T19:18:04.872Z,96946.03
2022-09-22T19:20:32.886Z,96951.66
2022-09-22T19:23:03.659Z,96951.56
2022-09-22T19:25:32.198Z,96946.44
2022-09-22T19:28:01.592Z,96951.25
2022-09-22T19:30:31.468Z,96947.00
2022-09-22T19:33:00.385Z,96949.44
2022-09-22T19:35:29.421Z,96943.19
2022-09-22T19:37:57.483Z,96946.66
2022-09-22T19:40:26.891Z,96945.09
2022-09-22T19:42:55.568Z,96948.53
2022-09-22T19:45:24.934Z,96947.13
2022-09-22T19:47:56.202Z,96948.66
2022-09-22T19:50:25.398Z,96947.56
2022-09-22T19:52:53.451Z,96948.44
2022-09-22T19:55:22.003Z,96949.53
2022-09-22T19:57:52.437Z,96958.72
2022-09-22T20:00:25.794Z,96955.50
2022-09-22T20:02:58.355Z,96951.50
2022-09-22T20:05:30.188Z,96954.16
2022-09-22T20:07:58.278Z,96952.78
2022-09-22T20:10:26.739Z,96944.22
2022-09-22T20:12:56.613Z,96946.72
2022-09-22T20:15:25.180Z,96943.47
2022-09-22T20:17:54.077Z,96942.44
2022-09-22T20:20:25.159Z,96935.25
2022-09-22T20:23:00.358Z,96934.75
2022-09-22T20:25:31.378Z,96940.88
2022-09-22T20:28:00.981Z,96934.69
2022-09-22T20:30:29.006Z,96928.22
2022-09-22T20:32:57.073Z,96933.56
2022-09-22T20:35:25.248Z,96929.13
2022-09-22T20:37:59.211Z,96925.75
2022-09-22T20:40:27.855Z,96922.97
2022-09-22T20:42:55.878Z,96923.63
2022-09-22T20:45:26.233Z,96921.94
2022-09-22T20:47:56.034Z,96922.66
2022-09-22T20:50:24.062Z,96918.81
2022-09-22T20:52:52.069Z,96927.56
2022-09-22T20:55:20.334Z,96921.47
2022-09-22T20:57:48.354Z,96920.25
2022-09-22T21:00:16.753Z,96922.81
2022-09-22T21:02:47.273Z,96922.00
2022-09-22T21:05:15.634Z,96931.75
2022-09-22T21:07:43.619Z,96923.63
2022-09-22T21:10:29.217Z,96920.84
2022-09-22T21:12:57.577Z,96916.00
2022-09-22T21:15:25.658Z,96928.22
2022-09-22T21:17:54.976Z,96915.22
2022-09-22T21:20:23.166Z,96922.78
2022-09-22T21:22:52.496Z,96927.47
2022-09-22T21:25:20.628Z,96925.66
2022-09-22T21:27:48.630Z,96925.91
2022-09-22T21:30:16.803Z,96921.47
2022-09-22T21:32:45.001Z,96920.28
2022-09-22T21:35:16.709Z,96912.22
2022-09-22T21:37:45.043Z,96914.25
2022-09-22T21:40:13.318Z,96914.41
2022-09-22T21:42:41.411Z,96911.78
2022-09-22T21:45:10.613Z,96907.31
2022-09-22T21:47:38.611Z,96904.91
2022-09-22T21:50:08.200Z,96910.78
2022-09-22T21:52:38.439Z,96917.47
2022-09-22T21:55:07.943Z,96910.97
2022-09-22T21:57:36.167Z,96909.16
2022-09-22T22:00:07.653Z,96906.94
2022-09-22T22:02:54.089Z,96906.13
2022-09-22T22:05:22.115Z,96905.94
2022-09-22T22:07:51.498Z,96902.91
2022-09-22T22:10:19.594Z,96899.03
2022-09-22T22:12:47.724Z,96898.41
2022-09-22T22:15:16.023Z,96896.81
2022-09-22T22:17:44.017Z,96898.44
2022-09-22T22:20:12.083Z,96894.97
2022-09-22T22:22:40.123Z,96892.34
2022-09-22T22:25:18.354Z,96893.00
2022-09-22T22:27:46.526Z,96894.41
2022-09-22T22:30:14.655Z,96889.34
2022-09-22T22:32:43.004Z,96881.25
2022-09-22T22:35:11.567Z,96887.53
2022-09-22T22:37:39.875Z,96893.81
2022-09-22T22:40:10.520Z,96880.41
2022-09-22T22:42:38.559Z,96879.44
2022-09-22T22:45:07.475Z,96881.81
2022-09-22T22:47:35.434Z,96878.00
2022-09-22T22:50:03.468Z,96873.75
2022-09-22T22:52:31.476Z,96871.91
2022-09-22T22:54:59.536Z,96868.25
2022-09-22T22:57:28.905Z,96874.75
2022-09-22T22:59:57.948Z,96854.94
2022-09-22T23:02:26.145Z,96861.63
2022-09-22T23:04:54.197Z,96855.13
2022-09-22T23:07:22.426Z,96859.41
2022-09-22T23:10:05.950Z,96860.44
2022-09-22T23:12:36.064Z,96857.78
2022-09-22T23:15:04.807Z,96853.31
2022-09-22T23:17:33.285Z,96852.09
2022-09-22T23:20:01.265Z,96850.69
2022-09-22T23:22:30.518Z,96856.34
2022-09-22T23:24:58.562Z,96851.91
2022-09-22T23:27:27.167Z,96852.09
2022-09-22T23:29:57.244Z,96853.50
2022-09-22T23:32:25.568Z,96858.59
2022-09-22T23:34:53.685Z,96853.34
2022-09-22T23:37:24.705Z,96861.06
2022-09-22T23:39:53.178Z,96857.00
2022-09-22T23:42:21.479Z,96859.84
2022-09-22T23:44:49.484Z,96861.66
2022-09-22T23:47:18.955Z,96849.72
2022-09-22T23:49:47.428Z,96847.06
2022-09-22T23:52:15.378Z,96850.53
2022-09-22T23:54:44.656Z,96853.97
2022-09-22T23:57:12.706Z,96845.66
2022-09-22T23:59:40.690Z,96843.03
